This is the latest recevied weather packets stored in our database for station/object WB0VGI-1. If no packets are shown the sender has not sent any weather packets the latest 10 day(s).
| Time | Temp. | Humidity | Pressure | Rain* | Wind** | Luminosity | Snow |
|---|---|---|---|---|---|---|---|
| 1778250425 | 11.11° C | 52% | 1011 hPa | 0 mm | - | - | - |
| 1778249225 | 10.56° C | 52% | 1011.2 hPa | 0 mm | - | - | - |
| 1778248025 | 9.44° C | 58% | 1011.5 hPa | 0 mm | - | - | - |
| 1778246825 | 8.33° C | 63% | 1011.9 hPa | 0 mm | - | - | - |
| 1778245625 | 7.22° C | 65% | 1012 hPa | 0 mm | - | - | - |
| 1778244425 | 6.11° C | 68% | 1012 hPa | 0 mm | - | - | - |
| 1778243225 | 4.44° C | 71% | 1012.3 hPa | 0 mm | - | - | - |
| 1778242025 | 3.89° C | 71% | 1012.3 hPa | 0 mm | - | - | - |
| 1778240825 | 3.89° C | 70% | 1012.2 hPa | 0 mm | - | - | - |
| 1778239625 | 3.33° C | 71% | 1012.2 hPa | 0 mm | - | - | - |
| 1778238425 | 4.44° C | 66% | 1012.1 hPa | 0 mm | - | - | - |
| 1778237225 | 4.44° C | 65% | 1012.1 hPa | 0 mm | - | - | - |
| 1778236025 | 3.33° C | 73% | 1012.4 hPa | 0 mm | - | - | - |
| 1778234825 | 2.78° C | 78% | 1012.6 hPa | 0 mm | - | - | - |
| 1778233625 | 2.78° C | 81% | 1012.7 hPa | 0 mm | - | - | - |
| 1778232425 | 2.78° C | 86% | 1012.7 hPa | 0 mm | - | - | - |
| 1778231226 | 2.78° C | 84% | 1012.7 hPa | 0 mm | - | - | - |
| 1778230026 | 2.78° C | 80% | 1012.9 hPa | 0 mm | - | - | - |
| 1778228826 | 3.33° C | 80% | 1012.8 hPa | 0 mm | - | - | - |
| 1778227626 | 3.33° C | 82% | 1012.6 hPa | 0 mm | - | - | - |
| 1778226426 | 3.89° C | 81% | 1012.6 hPa | 0 mm | - | - | - |
| 1778225226 | 4.44° C | 85% | 1012.8 hPa | 0 mm | - | - | - |
| 1778224026 | 4.44° C | 74% | 1012.8 hPa | 0 mm | - | - | - |
| 1778222826 | 5° C | 76% | 1012.9 hPa | 0 mm | - | - | - |
| 1778221626 | 6.11° C | 54% | 1012.7 hPa | 0 mm | - | - | - |
* Rain latest hour (hover to see other rain measurements)
** Current wind speed in m/s (hover to see current wind gust speed)